Time;durP1;ratioP1;P1;durP2;ratioP2;P2;SDS_P1;SDS_P2;PMS_P1;PMS_P2;Temp;Humidity;BMP_temperature;BMP_pressure;BME280_temperature;BME280_humidity;BME280_pressure;Samples;Min_cycle;Max_cycle;Signal;HPM_P1;HPM_P2
2022/03/10 00:00:16;;;;;;;6.50;5.60;;;20.50;41.00;;;;;;4959134;28;20205;-65
2022/03/10 00:02:43;;;;;;;6.15;5.55;;;20.50;41.00;;;;;;4943158;28;20237;-65
2022/03/10 00:05:15;;;;;;;5.80;5.30;;;20.50;41.00;;;;;;4959212;28;20197;-64
2022/03/10 00:07:41;;;;;;;6.03;5.43;;;20.50;40.90;;;;;;4959462;28;20284;-65
2022/03/10 00:10:08;;;;;;;6.00;5.40;;;20.40;40.70;;;;;;4959176;28;20198;-65
2022/03/10 00:12:35;;;;;;;6.03;5.43;;;20.40;40.70;;;;;;4976286;28;20182;-64
2022/03/10 00:15:08;;;;;;;5.80;5.20;;;20.50;40.80;;;;;;4959117;28;20336;-65
2022/03/10 00:17:34;;;;;;;5.90;5.40;;;20.40;40.60;;;;;;4959272;28;20186;-65
2022/03/10 00:20:00;;;;;;;6.28;5.57;;;20.40;40.50;;;;;;4958845;28;20212;-66
2022/03/10 00:22:25;;;;;;;6.47;5.88;;;20.40;40.70;;;;;;4958926;28;20174;-65
2022/03/10 00:24:51;;;;;;;6.53;5.20;;;20.40;40.50;;;;;;4959363;28;20186;-65
2022/03/10 00:27:17;;;;;;;5.70;5.10;;;20.40;40.70;;;;;;4959047;28;20225;-65
2022/03/10 00:29:43;;;;;;;6.32;5.60;;;20.40;40.70;;;;;;4959025;28;20210;-64
2022/03/10 00:32:09;;;;;;;5.72;5.15;;;20.40;40.80;;;;;;4943149;28;20229;-65
2022/03/10 00:34:35;;;;;;;6.45;5.47;;;20.40;40.80;;;;;;4942483;28;20209;-65
2022/03/10 00:37:02;;;;;;;5.72;5.13;;;20.40;40.80;;;;;;4958595;28;20581;-65
2022/03/10 00:39:28;;;;;;;5.70;5.20;;;20.40;40.80;;;;;;4942517;28;20205;-65
2022/03/10 00:41:54;;;;;;;5.72;4.88;;;20.40;40.80;;;;;;4958477;28;20181;-65
2022/03/10 00:44:20;;;;;;;5.25;4.75;;;20.40;40.80;;;;;;4958247;28;20250;-65
2022/03/10 00:46:46;;;;;;;5.32;4.72;;;20.40;40.80;;;;;;4942203;28;20186;-65
2022/03/10 00:49:12;;;;;;;5.82;5.20;;;20.40;40.90;;;;;;4958489;28;20251;-65
2022/03/10 00:51:38;;;;;;;5.05;4.60;;;20.40;40.80;;;;;;4942433;28;20193;-65
2022/03/10 00:54:04;;;;;;;5.38;4.88;;;20.40;40.90;;;;;;4942115;28;20193;-65
2022/03/10 00:56:29;;;;;;;4.93;4.50;;;20.40;40.90;;;;;;4958559;28;20221;-65
2022/03/10 00:58:55;;;;;;;5.18;4.68;;;20.40;40.80;;;;;;4926375;28;20217;-65
2022/03/10 01:01:21;;;;;;;5.00;4.50;;;20.40;40.80;;;;;;4942320;28;20189;-65
2022/03/10 01:03:46;;;;;;;5.38;4.88;;;20.40;40.80;;;;;;4958505;28;20254;-65
2022/03/10 01:06:12;;;;;;;4.70;4.30;;;20.40;40.70;;;;;;4942167;28;20201;-66
2022/03/10 01:08:38;;;;;;;4.45;4.03;;;20.40;40.70;;;;;;4942058;28;20205;-65
2022/03/10 01:11:04;;;;;;;4.40;4.00;;;20.40;40.70;;;;;;4975519;28;20190;-65
2022/03/10 01:13:29;;;;;;;4.95;4.30;;;20.40;40.70;;;;;;4975114;28;20181;-65
2022/03/10 01:15:55;;;;;;;4.57;4.18;;;20.40;40.60;;;;;;4941828;28;20225;-65
2022/03/10 01:18:21;;;;;;;4.80;4.30;;;20.40;40.50;;;;;;4942189;28;20197;-65
2022/03/10 01:20:47;;;;;;;5.18;4.68;;;20.40;40.60;;;;;;4942214;28;20186;-65
2022/03/10 01:23:12;;;;;;;4.65;4.25;;;20.40;40.70;;;;;;4957995;28;20188;-65
2022/03/10 01:25:39;;;;;;;4.15;3.75;;;20.40;40.70;;;;;;4957796;28;20184;-65
2022/03/10 01:28:08;;;;;;;4.85;4.35;;;20.40;41.30;;;;;;4958012;28;20260;-65
2022/03/10 01:30:34;;;;;;;4.38;3.97;;;20.40;40.70;;;;;;4941837;28;20244;-64
2022/03/10 01:33:00;;;;;;;4.88;4.03;;;20.40;40.80;;;;;;4941644;28;20248;-65
2022/03/10 01:35:27;;;;;;;4.25;3.85;;;20.30;40.70;;;;;;4957461;28;20240;-67
2022/03/10 01:37:53;;;;;;;4.45;4.05;;;20.40;40.80;;;;;;4957743;28;20185;-65
2022/03/10 01:40:19;;;;;;;4.15;3.75;;;20.30;40.80;;;;;;4941494;28;20201;-65
2022/03/10 01:42:47;;;;;;;4.15;3.75;;;20.40;40.80;;;;;;4957415;28;20184;-65
2022/03/10 01:45:14;;;;;;;4.50;4.10;;;20.40;40.90;;;;;;4957543;28;20206;-64
2022/03/10 01:47:41;;;;;;;4.75;4.20;;;20.40;40.80;;;;;;4941504;28;20220;-65
2022/03/10 01:50:10;;;;;;;4.10;3.78;;;20.40;40.80;;;;;;4957388;28;20206;-66
2022/03/10 01:52:37;;;;;;;4.22;3.92;;;20.40;40.80;;;;;;4941228;28;20725;-65
2022/03/10 01:55:04;;;;;;;4.55;4.10;;;20.40;41.40;;;;;;4974415;28;20245;-65
2022/03/10 01:57:30;;;;;;;3.30;3.00;;;20.40;40.70;;;;;;4956393;28;20182;-65
2022/03/10 01:59:56;;;;;;;4.55;4.10;;;20.30;40.60;;;;;;4957057;28;20213;-65
2022/03/10 02:02:22;;;;;;;4.13;3.80;;;20.40;40.70;;;;;;4957109;28;20186;-65
2022/03/10 02:04:48;;;;;;;3.75;3.42;;;20.30;40.60;;;;;;4957034;28;20244;-65
2022/03/10 02:10:16;;;;;;;3.50;3.20;;;20.30;40.40;;;;;;4974259;28;20211;-66
2022/03/10 02:12:54;;;;;;;4.07;3.47;;;20.30;40.60;;;;;;4956768;28;20178;-65
2022/03/10 02:18:08;;;;;;;3.88;3.53;;;20.30;40.80;;;;;;4957072;28;20311;-65
2022/03/10 02:20:36;;;;;;;3.90;3.60;;;20.30;40.80;;;;;;4956795;28;20206;-64
2022/03/10 02:23:04;;;;;;;3.97;3.60;;;20.30;40.80;;;;;;4973894;28;20174;-65
2022/03/10 02:25:30;;;;;;;3.65;3.35;;;20.30;40.60;;;;;;4940879;28;20181;-65
2022/03/10 02:27:57;;;;;;;3.60;3.30;;;20.30;40.60;;;;;;4940997;28;20197;-65
2022/03/10 02:30:28;;;;;;;3.20;2.90;;;20.30;40.60;;;;;;4956433;28;20694;-65
2022/03/10 02:32:54;;;;;;;3.40;3.10;;;20.30;40.60;;;;;;4940754;28;20221;-65
2022/03/10 02:35:20;;;;;;;3.83;3.50;;;20.30;40.50;;;;;;4940628;28;20249;-65
2022/03/10 02:37:46;;;;;;;4.10;3.70;;;20.30;40.50;;;;;;4956575;28;20174;-65
2022/03/10 02:40:13;;;;;;;3.50;3.20;;;20.30;40.40;;;;;;4955738;28;20241;-65
2022/03/10 02:42:39;;;;;;;3.72;3.42;;;20.30;40.60;;;;;;4973663;28;20182;-65
2022/03/10 02:45:07;;;;;;;3.75;3.40;;;20.30;40.60;;;;;;4956513;28;20186;-65
2022/03/10 02:47:33;;;;;;;3.50;3.20;;;20.30;40.60;;;;;;4940417;28;20197;-65
2022/03/10 02:49:58;;;;;;;3.60;3.30;;;20.30;40.70;;;;;;4956489;28;20225;-65
2022/03/10 02:52:24;;;;;;;3.63;3.20;;;20.30;40.60;;;;;;4940231;28;20701;-64
2022/03/10 02:54:51;;;;;;;3.97;3.67;;;20.30;40.70;;;;;;4940528;28;20217;-66
2022/03/10 02:57:17;;;;;;;3.30;3.00;;;20.30;40.70;;;;;;4940616;28;20224;-65
2022/03/10 02:59:43;;;;;;;3.70;3.40;;;20.30;40.70;;;;;;4940288;28;20252;-65
2022/03/10 03:02:09;;;;;;;3.60;3.13;;;20.30;40.70;;;;;;4956176;28;20196;-65
2022/03/10 03:04:35;;;;;;;3.88;3.58;;;20.30;40.70;;;;;;4940043;28;20770;-65
2022/03/10 03:07:03;;;;;;;3.05;2.75;;;20.30;40.80;;;;;;4973445;28;20178;-65
2022/03/10 03:09:29;;;;;;;3.53;3.20;;;20.30;40.70;;;;;;4944076;28;20212;-65
2022/03/10 03:11:55;;;;;;;4.20;3.15;;;20.30;40.70;;;;;;4946579;28;20193;-65
2022/03/10 03:14:23;;;;;;;3.58;3.28;;;20.30;40.80;;;;;;4946307;28;20192;-65
2022/03/10 03:16:57;;;;;;;3.10;2.90;;;20.30;40.70;;;;;;4946764;28;20184;-65
2022/03/10 03:19:24;;;;;;;3.13;2.92;;;20.30;40.60;;;;;;4962486;28;20201;-65
2022/03/10 03:21:53;;;;;;;3.28;2.97;;;20.30;40.60;;;;;;4962479;28;20185;-65
2022/03/10 03:24:21;;;;;;;3.80;3.05;;;20.30;40.60;;;;;;4946489;28;20244;-65
2022/03/10 03:26:47;;;;;;;3.03;2.83;;;20.30;40.50;;;;;;4962472;28;20192;-65
2022/03/10 03:29:12;;;;;;;3.08;2.78;;;20.30;40.50;;;;;;4962467;28;20197;-65
2022/03/10 03:31:38;;;;;;;3.00;2.80;;;20.30;40.50;;;;;;4962720;28;20182;-65
2022/03/10 03:34:10;;;;;;;3.15;2.85;;;20.30;40.50;;;;;;4946520;28;20182;-65
2022/03/10 03:36:43;;;;;;;3.13;2.92;;;20.20;40.50;;;;;;4946536;28;20205;-66
2022/03/10 03:39:10;;;;;;;2.80;2.60;;;20.20;40.60;;;;;;4954289;28;20239;-65
2022/03/10 03:41:36;;;;;;;3.00;2.70;;;20.30;40.70;;;;;;4995686;28;20173;-64
2022/03/10 03:44:03;;;;;;;3.10;2.80;;;20.30;40.70;;;;;;4998862;28;20185;-65
2022/03/10 03:46:29;;;;;;;3.67;2.70;;;20.30;40.70;;;;;;4958832;28;20196;-65
2022/03/10 03:48:55;;;;;;;3.08;2.75;;;20.20;40.60;;;;;;4972400;28;20209;-65
2022/03/10 03:51:22;;;;;;;3.20;2.70;;;20.20;40.70;;;;;;4981673;28;20192;-66
2022/03/10 03:53:48;;;;;;;3.00;2.70;;;20.30;40.80;;;;;;4981730;28;20543;-65
2022/03/10 03:56:15;;;;;;;3.30;3.00;;;20.20;40.70;;;;;;4981490;28;20220;-65
2022/03/10 03:58:41;;;;;;;3.10;2.90;;;20.30;40.70;;;;;;4981300;28;20208;-65
2022/03/10 04:01:06;;;;;;;2.97;2.70;;;20.30;40.70;;;;;;4965618;28;20177;-64
2022/03/10 04:03:32;;;;;;;2.53;2.33;;;20.30;40.80;;;;;;4990444;23;20229;-66
2022/03/10 04:05:58;;;;;;;2.72;2.53;;;20.30;40.60;;;;;;4981639;28;20273;-66
2022/03/10 04:08:25;;;;;;;2.78;2.58;;;20.30;40.70;;;;;;4981687;28;20185;-66
2022/03/10 04:10:52;;;;;;;2.75;2.55;;;20.30;40.70;;;;;;4981703;28;20287;-66
2022/03/10 04:13:21;;;;;;;3.08;2.78;;;20.30;40.60;;;;;;4998872;28;20209;-66
2022/03/10 04:15:49;;;;;;;2.85;2.65;;;20.30;40.60;;;;;;4981129;28;20212;-66
2022/03/10 04:18:16;;;;;;;3.25;2.95;;;20.30;40.60;;;;;;4997621;28;20191;-69
2022/03/10 04:20:44;;;;;;;2.70;2.50;;;20.20;40.40;;;;;;4994907;28;20180;-69
2022/03/10 04:23:14;;;;;;;2.60;2.40;;;20.30;40.60;;;;;;4962187;28;20216;-69
2022/03/10 04:25:41;;;;;;;2.53;2.33;;;20.30;40.60;;;;;;4978232;28;20190;-66
2022/03/10 04:28:07;;;;;;;2.50;2.30;;;20.20;40.50;;;;;;4962112;28;20181;-66
2022/03/10 04:30:34;;;;;;;2.72;2.53;;;20.30;40.70;;;;;;4994542;28;20188;-66
2022/03/10 04:33:01;;;;;;;2.28;2.08;;;20.30;40.70;;;;;;4977872;28;20267;-66
2022/03/10 04:35:28;;;;;;;2.40;2.20;;;20.30;40.70;;;;;;4994135;28;20205;-66
2022/03/10 04:37:55;;;;;;;2.40;2.20;;;20.30;40.70;;;;;;4994227;28;20650;-66
2022/03/10 04:40:22;;;;;;;2.70;2.50;;;20.30;40.70;;;;;;4994491;28;20191;-66
2022/03/10 04:42:50;;;;;;;2.30;2.15;;;20.30;40.70;;;;;;4993957;28;20208;-66
2022/03/10 04:45:16;;;;;;;2.55;2.35;;;20.30;40.70;;;;;;4995322;28;20185;-66
2022/03/10 04:47:42;;;;;;;2.58;2.38;;;20.30;40.70;;;;;;4995167;28;20181;-66
2022/03/10 04:50:12;;;;;;;2.55;2.10;;;20.20;40.70;;;;;;4978060;28;20185;-66
2022/03/10 04:52:38;;;;;;;2.65;2.45;;;20.30;40.70;;;;;;4993807;28;20191;-66
2022/03/10 04:55:04;;;;;;;2.65;2.25;;;20.30;40.70;;;;;;4993689;28;20209;-66
2022/03/10 04:57:30;;;;;;;2.50;2.30;;;20.30;40.60;;;;;;4961845;28;20181;-66
2022/03/10 04:59:56;;;;;;;2.65;2.45;;;20.30;40.60;;;;;;4995029;28;20232;-66
2022/03/10 05:02:22;;;;;;;1.90;1.80;;;20.30;40.60;;;;;;4977582;28;20227;-66
2022/03/10 05:04:48;;;;;;;3.13;2.53;;;20.30;40.60;;;;;;4993604;28;20259;-66
2022/03/10 05:07:14;;;;;;;2.63;2.08;;;20.20;40.40;;;;;;4994859;28;20201;-66
2022/03/10 05:09:40;;;;;;;3.05;2.75;;;20.30;40.50;;;;;;4977454;28;20185;-66
2022/03/10 05:12:06;;;;;;;2.85;2.40;;;20.30;40.50;;;;;;4977352;28;20211;-66
2022/03/10 05:14:32;;;;;;;2.45;2.25;;;20.30;40.60;;;;;;4961197;28;20212;-66
2022/03/10 05:16:57;;;;;;;3.63;2.55;;;20.30;40.50;;;;;;4977326;28;20653;-67
2022/03/10 05:19:23;;;;;;;2.70;2.50;;;20.30;40.60;;;;;;4993738;28;20197;-66
2022/03/10 05:21:50;;;;;;;2.22;2.03;;;20.30;40.60;;;;;;4977236;28;20189;-66
2022/03/10 05:24:16;;;;;;;2.42;2.22;;;20.30;40.60;;;;;;4994312;28;20208;-66
2022/03/10 05:26:42;;;;;;;2.65;2.45;;;20.30;40.60;;;;;;4993212;28;20191;-66
2022/03/10 05:29:07;;;;;;;2.60;2.38;;;20.30;40.60;;;;;;4993545;28;20242;-66
2022/03/10 05:31:33;;;;;;;2.88;2.67;;;20.30;40.70;;;;;;4976954;28;20210;-66
2022/03/10 05:33:59;;;;;;;2.42;2.22;;;20.30;40.70;;;;;;4992906;28;20255;-66
2022/03/10 05:36:26;;;;;;;2.40;2.20;;;20.30;40.60;;;;;;4994258;28;20243;-66
2022/03/10 05:38:51;;;;;;;2.80;2.47;;;20.30;40.60;;;;;;4993025;28;20185;-67
2022/03/10 05:41:17;;;;;;;2.40;2.20;;;20.30;40.60;;;;;;4994283;28;20260;-66
2022/03/10 05:43:43;;;;;;;2.45;2.25;;;20.30;40.60;;;;;;4976744;28;20207;-66
2022/03/10 05:46:08;;;;;;;2.55;2.35;;;20.30;40.60;;;;;;4977016;28;20188;-66
2022/03/10 05:48:34;;;;;;;2.50;2.30;;;20.30;40.60;;;;;;4976837;28;20185;-66
2022/03/10 05:51:00;;;;;;;2.47;2.28;;;20.30;40.60;;;;;;4994265;28;20232;-66
2022/03/10 05:53:26;;;;;;;2.67;2.47;;;20.30;40.60;;;;;;4993741;28;20639;-66
2022/03/10 05:55:52;;;;;;;2.80;2.55;;;20.30;40.50;;;;;;4993012;28;20213;-66
2022/03/10 05:58:18;;;;;;;3.05;2.72;;;20.30;40.60;;;;;;4992967;28;20642;-67
2022/03/10 06:00:44;;;;;;;2.80;2.40;;;20.30;40.50;;;;;;4976590;28;20188;-66
2022/03/10 06:03:10;;;;;;;2.65;2.30;;;20.30;40.50;;;;;;4976163;28;20300;-67
2022/03/10 06:05:36;;;;;;;2.78;2.58;;;20.30;40.40;;;;;;4994070;28;20189;-66
2022/03/10 06:08:02;;;;;;;2.55;2.22;;;20.20;40.40;;;;;;4976594;28;20215;-65
2022/03/10 06:10:28;;;;;;;2.78;2.58;;;20.30;40.30;;;;;;4992339;28;20189;-67
2022/03/10 06:12:54;;;;;;;2.45;2.25;;;20.20;40.30;;;;;;4992142;28;20207;-66
2022/03/10 06:15:19;;;;;;;2.30;2.10;;;20.20;40.40;;;;;;4993419;28;20205;-66
2022/03/10 06:17:45;;;;;;;2.67;2.40;;;20.20;40.40;;;;;;4976247;28;20235;-66
2022/03/10 06:20:11;;;;;;;2.20;2.00;;;20.30;40.50;;;;;;4993065;28;20246;-66
2022/03/10 06:22:38;;;;;;;2.53;2.33;;;20.30;40.50;;;;;;4995536;28;20240;-66
2022/03/10 06:25:05;;;;;;;2.70;2.33;;;20.20;41.00;;;;;;4995297;28;20208;-67
2022/03/10 06:27:32;;;;;;;2.45;2.00;;;20.30;40.50;;;;;;4995760;28;20184;-66
2022/03/10 06:29:57;;;;;;;2.45;2.25;;;20.30;40.50;;;;;;4979239;28;20291;-66
2022/03/10 06:32:24;;;;;;;2.42;2.22;;;20.20;40.40;;;;;;4978988;28;20275;-66
2022/03/10 06:34:53;;;;;;;2.55;2.35;;;20.30;40.50;;;;;;4978759;28;20216;-67
2022/03/10 06:37:20;;;;;;;2.65;2.45;;;20.30;40.60;;;;;;4995611;28;20192;-67
2022/03/10 06:39:46;;;;;;;2.60;2.40;;;20.30;40.50;;;;;;5012711;28;20186;-67
2022/03/10 06:42:12;;;;;;;2.67;2.47;;;20.30;40.50;;;;;;4994637;28;20199;-67
2022/03/10 06:44:38;;;;;;;2.60;2.40;;;20.30;40.50;;;;;;4994713;28;20303;-67
2022/03/10 06:47:06;;;;;;;2.60;2.40;;;20.30;40.50;;;;;;4975441;28;20205;-67
2022/03/10 06:49:33;;;;;;;3.15;2.75;;;20.30;40.40;;;;;;4946642;28;20182;-67
2022/03/10 06:51:59;;;;;;;2.95;2.65;;;20.30;40.50;;;;;;4994877;28;20564;-67
2022/03/10 06:54:25;;;;;;;2.78;2.58;;;20.30;40.30;;;;;;4991643;28;20197;-67
2022/03/10 06:56:51;;;;;;;2.92;2.47;;;20.30;40.20;;;;;;4975661;28;20223;-67
2022/03/10 06:59:17;;;;;;;2.65;2.45;;;20.40;40.30;;;;;;4956470;28;20654;-67
2022/03/10 07:01:43;;;;;;;3.10;2.83;;;20.40;40.30;;;;;;4956176;28;20182;-67
2022/03/10 07:04:09;;;;;;;2.58;2.38;;;20.40;40.20;;;;;;4955906;28;20263;-67
2022/03/10 07:06:35;;;;;;;2.88;2.40;;;20.50;40.40;;;;;;4969108;28;20203;-67
2022/03/10 07:09:02;;;;;;;2.95;2.65;;;20.50;40.20;;;;;;4974324;28;20187;-66
2022/03/10 07:11:27;;;;;;;2.50;2.30;;;20.50;40.20;;;;;;4975275;28;20224;-66
2022/03/10 07:13:53;;;;;;;2.83;2.20;;;20.50;40.20;;;;;;4992320;28;20243;-66
2022/03/10 07:16:19;;;;;;;2.75;2.47;;;20.60;40.30;;;;;;4992503;28;20287;-66
2022/03/10 07:18:50;;;;;;;2.50;2.30;;;20.60;40.30;;;;;;4959598;28;20239;-66
2022/03/10 07:21:18;;;;;;;2.47;2.28;;;20.60;40.30;;;;;;4975054;28;20176;-67
2022/03/10 07:23:44;;;;;;;2.05;1.95;;;20.60;40.20;;;;;;4975435;28;20288;-67
2022/03/10 07:26:11;;;;;;;2.45;2.25;;;20.70;40.20;;;;;;4975483;28;20185;-67
2022/03/10 07:28:37;;;;;;;2.60;2.40;;;20.70;40.10;;;;;;4975193;28;20654;-67
2022/03/10 07:31:03;;;;;;;2.70;2.50;;;20.70;40.10;;;;;;4958907;28;20203;-66
2022/03/10 07:33:28;;;;;;;2.50;2.30;;;20.70;40.00;;;;;;4974804;28;20264;-66
2022/03/10 07:35:55;;;;;;;2.70;2.50;;;20.80;40.00;;;;;;4985301;28;20205;-66
2022/03/10 07:38:21;;;;;;;2.58;2.38;;;20.80;40.10;;;;;;4956114;28;20613;-66
2022/03/10 07:40:47;;;;;;;2.67;2.47;;;20.80;40.00;;;;;;4951917;28;20185;-66
2022/03/10 07:43:12;;;;;;;2.72;2.47;;;20.80;40.00;;;;;;4958883;28;20227;-66
2022/03/10 07:45:38;;;;;;;2.50;2.30;;;20.80;40.00;;;;;;4974806;28;20184;-66
2022/03/10 07:48:05;;;;;;;2.47;2.28;;;20.80;40.00;;;;;;4975175;28;20192;-67
2022/03/10 07:50:31;;;;;;;2.45;2.25;;;20.80;40.00;;;;;;4981765;28;20199;-67
2022/03/10 07:52:57;;;;;;;2.40;2.20;;;20.80;40.00;;;;;;4991359;28;20188;-67
2022/03/10 07:55:22;;;;;;;2.35;2.20;;;20.80;39.90;;;;;;4991551;28;20630;-66
2022/03/10 07:57:49;;;;;;;2.33;1.98;;;20.90;40.00;;;;;;4978485;28;20561;-66
2022/03/10 08:00:15;;;;;;;2.67;2.47;;;20.90;39.90;;;;;;4990303;28;20204;-67
2022/03/10 08:02:42;;;;;;;2.33;2.13;;;20.90;40.00;;;;;;4978655;28;20173;-67
2022/03/10 08:05:09;;;;;;;2.00;1.90;;;20.90;40.00;;;;;;4962758;28;20670;-67
2022/03/10 08:07:35;;;;;;;2.25;2.13;;;20.90;40.00;;;;;;4970852;28;20204;-67
2022/03/10 08:10:06;;;;;;;2.15;1.98;;;21.00;40.10;;;;;;4972966;28;20276;-67
2022/03/10 08:12:33;;;;;;;2.35;2.20;;;20.90;40.00;;;;;;4995668;28;20193;-67
2022/03/10 08:15:01;;;;;;;3.05;2.00;;;20.90;39.90;;;;;;4978437;28;20248;-67
2022/03/10 08:17:27;;;;;;;2.38;2.17;;;20.90;39.90;;;;;;4995626;28;20662;-67
2022/03/10 08:19:54;;;;;;;2.00;1.90;;;20.90;39.90;;;;;;4963969;28;20199;-67
2022/03/10 08:22:24;;;;;;;2.35;2.15;;;21.00;40.00;;;;;;4978261;28;20185;-66
2022/03/10 08:24:50;;;;;;;2.10;1.90;;;21.00;40.00;;;;;;4994520;28;20303;-67
2022/03/10 08:27:17;;;;;;;1.83;1.73;;;21.00;40.00;;;;;;4995682;28;20181;-67
2022/03/10 08:29:44;;;;;;;2.33;2.13;;;21.00;40.00;;;;;;4991996;28;20300;-67
2022/03/10 08:32:11;;;;;;;2.00;1.90;;;21.00;40.00;;;;;;4978445;28;20275;-67
2022/03/10 08:34:37;;;;;;;2.85;2.10;;;21.00;39.90;;;;;;4961535;28;20225;-67
2022/03/10 08:37:05;;;;;;;2.28;2.08;;;21.00;40.00;;;;;;4977728;28;20607;-67
2022/03/10 08:39:31;;;;;;;2.22;2.03;;;21.00;39.90;;;;;;4960421;28;20181;-67
2022/03/10 08:41:56;;;;;;;2.00;1.90;;;21.00;40.00;;;;;;4978232;28;20184;-67
2022/03/10 08:44:23;;;;;;;2.33;2.13;;;21.00;40.00;;;;;;4994912;28;20208;-66
2022/03/10 08:46:48;;;;;;;2.72;2.13;;;21.00;40.10;;;;;;4961744;28;20188;-66
2022/03/10 08:49:17;;;;;;;2.33;2.13;;;21.00;40.10;;;;;;4984551;28;20280;-66
2022/03/10 08:51:44;;;;;;;2.40;2.30;;;21.00;40.10;;;;;;4995211;28;20620;-67
2022/03/10 08:54:12;;;;;;;2.25;2.05;;;21.00;40.10;;;;;;4961468;28;20213;-67
2022/03/10 08:56:38;;;;;;;2.20;2.00;;;21.00;40.10;;;;;;4977732;28;20227;-66
2022/03/10 08:59:04;;;;;;;2.20;2.00;;;21.00;40.10;;;;;;4977546;28;20184;-67
2022/03/10 09:01:30;;;;;;;2.20;2.00;;;21.00;40.10;;;;;;4975909;28;20196;-67
2022/03/10 09:03:55;;;;;;;2.33;2.13;;;21.10;40.10;;;;;;4977262;28;20290;-67
2022/03/10 09:06:21;;;;;;;2.38;2.17;;;21.00;40.00;;;;;;4993334;28;20239;-67
2022/03/10 09:08:48;;;;;;;2.45;2.25;;;21.10;40.20;;;;;;4994999;28;20170;-67
2022/03/10 09:11:15;;;;;;;2.30;2.10;;;21.10;40.10;;;;;;4980669;28;20188;-67
2022/03/10 09:13:44;;;;;;;2.15;2.00;;;21.10;40.10;;;;;;5004803;28;20219;-67
2022/03/10 09:16:10;;;;;;;2.20;2.03;;;21.00;40.00;;;;;;4977651;28;20589;-67
2022/03/10 09:18:36;;;;;;;2.10;1.90;;;21.00;40.60;;;;;;4993496;28;20610;-67
2022/03/10 09:21:02;;;;;;;2.40;2.20;;;21.10;40.00;;;;;;4976743;28;20212;-67
2022/03/10 09:23:28;;;;;;;1.80;1.70;;;21.00;40.00;;;;;;4970336;28;20210;-67
2022/03/10 09:25:54;;;;;;;1.95;1.80;;;21.00;40.00;;;;;;4942097;28;20204;-67
2022/03/10 09:28:20;;;;;;;2.20;2.00;;;21.00;39.90;;;;;;4974006;28;20576;-67
2022/03/10 09:30:45;;;;;;;2.10;1.90;;;21.10;40.10;;;;;;4994776;28;20216;-67
2022/03/10 09:33:11;;;;;;;1.88;1.77;;;21.10;40.00;;;;;;4994244;28;20717;-67
2022/03/10 09:35:37;;;;;;;1.90;1.80;;;21.00;40.00;;;;;;4993167;28;20271;-67
2022/03/10 09:38:03;;;;;;;2.20;2.00;;;21.00;40.00;;;;;;4993484;28;20188;-67
2022/03/10 09:40:29;;;;;;;1.90;1.80;;;21.00;39.90;;;;;;4994129;28;20176;-66
2022/03/10 09:42:55;;;;;;;2.25;2.05;;;21.00;40.00;;;;;;4960498;28;20185;-66
2022/03/10 09:45:23;;;;;;;2.13;2.03;;;21.10;40.10;;;;;;4993261;28;20216;-66
2022/03/10 09:47:49;;;;;;;1.90;1.80;;;21.00;39.90;;;;;;4960516;28;20188;-67
2022/03/10 09:50:18;;;;;;;1.92;1.83;;;21.00;39.90;;;;;;4981555;28;20200;-67
2022/03/10 09:52:46;;;;;;;2.10;2.00;;;21.00;40.00;;;;;;4993939;28;20176;-67
2022/03/10 09:55:17;;;;;;;2.10;1.90;;;21.00;39.90;;;;;;4976337;28;20227;-67
2022/03/10 09:57:46;;;;;;;2.03;1.88;;;21.00;39.90;;;;;;4983166;28;20177;-67
2022/03/10 10:00:16;;;;;;;2.10;1.90;;;21.00;39.90;;;;;;4964601;28;20247;-67
2022/03/10 10:02:44;;;;;;;2.63;2.00;;;21.00;39.80;;;;;;4976273;28;20247;-66
2022/03/10 10:07:40;;;;;;;1.95;1.70;;;21.00;39.90;;;;;;4990881;28;20221;-67
2022/03/10 10:10:07;;;;;;;2.05;1.80;;;21.00;39.80;;;;;;4979607;28;20288;-67
2022/03/10 10:12:33;;;;;;;1.98;1.80;;;21.00;39.80;;;;;;4992494;28;20185;-67
2022/03/10 10:15:00;;;;;;;2.42;2.22;;;21.00;39.90;;;;;;4992428;28;20212;-66
2022/03/10 10:17:32;;;;;;;2.63;1.95;;;21.00;39.80;;;;;;4992709;28;20220;-67
2022/03/10 10:20:01;;;;;;;2.22;2.08;;;21.00;39.90;;;;;;4989180;28;20217;-67
2022/03/10 10:22:28;;;;;;;2.33;2.13;;;21.00;39.70;;;;;;4993345;28;20184;-67
2022/03/10 10:24:58;;;;;;;2.08;1.88;;;21.00;39.90;;;;;;4975930;28;20215;-67
2022/03/10 10:27:32;;;;;;;2.58;1.83;;;21.10;40.50;;;;;;4960200;28;20193;-66
2022/03/10 10:30:06;;;;;;;2.30;2.10;;;21.00;39.50;;;;;;4992124;28;20188;-66
2022/03/10 10:32:50;;;;;;;3.28;2.13;;;21.00;39.70;;;;;;4990912;28;20208;-67
2022/03/10 10:35:21;;;;;;;2.90;2.60;;;21.00;39.90;;;;;;4991875;28;20208;-66
2022/03/10 10:37:50;;;;;;;3.10;2.75;;;21.00;39.80;;;;;;4993266;28;20173;-66
2022/03/10 10:40:27;;;;;;;2.88;2.58;;;21.00;39.80;;;;;;5003317;28;20216;-66
2022/03/10 10:42:54;;;;;;;2.78;2.38;;;21.00;39.80;;;;;;4993181;28;20160;-67
2022/03/10 10:45:32;;;;;;;2.17;1.98;;;21.00;39.70;;;;;;4982437;28;20215;-66
2022/03/10 10:48:08;;;;;;;2.50;2.30;;;21.00;39.70;;;;;;5008291;28;20181;-68
2022/03/10 10:50:39;;;;;;;2.58;2.38;;;21.00;39.70;;;;;;4993875;28;20191;-66
2022/03/10 10:53:06;;;;;;;2.70;2.47;;;21.00;39.90;;;;;;4993368;28;20670;-67
2022/03/10 10:55:39;;;;;;;2.90;2.53;;;21.00;39.90;;;;;;4991319;28;20228;-67
2022/03/10 10:58:14;;;;;;;2.53;2.17;;;21.00;39.90;;;;;;4975775;28;20173;-67
2022/03/10 11:00:49;;;;;;;2.88;2.58;;;21.00;39.90;;;;;;4992836;28;20172;-66
2022/03/10 11:03:31;;;;;;;3.65;2.50;;;21.00;40.00;;;;;;4992655;28;20611;-67
2022/03/10 11:05:58;;;;;;;3.67;2.60;;;21.00;39.90;;;;;;4992996;28;20193;-66
2022/03/10 11:08:28;;;;;;;2.33;2.13;;;21.00;39.90;;;;;;4975694;28;20195;-67
2022/03/10 11:10:54;;;;;;;2.70;2.47;;;21.00;39.90;;;;;;4975513;28;20192;-67
2022/03/10 11:13:23;;;;;;;2.90;2.10;;;21.00;40.00;;;;;;4975148;28;20244;-66
2022/03/10 11:15:53;;;;;;;2.53;2.28;;;21.00;40.00;;;;;;4991497;28;20304;-67
2022/03/10 11:18:22;;;;;;;3.55;2.30;;;21.00;40.00;;;;;;4992839;28;20211;-66
2022/03/10 11:21:09;;;;;;;4.28;2.70;;;21.10;40.10;;;;;;4992496;28;20188;-66
2022/03/10 11:24:12;;;;;;;2.75;2.30;;;21.10;40.80;;;;;;4992386;28;20228;-66
2022/03/10 11:26:51;;;;;;;3.03;2.35;;;21.10;40.50;;;;;;4975647;28;20177;-66
2022/03/10 11:29:24;;;;;;;4.18;2.60;;;21.00;40.40;;;;;;4975198;28;20191;-67
2022/03/10 11:31:53;;;;;;;3.72;2.45;;;21.00;40.30;;;;;;4995475;28;20184;-67
2022/03/10 11:34:43;;;;;;;5.32;2.70;;;21.10;41.00;;;;;;4996449;28;20201;-67
2022/03/10 11:37:42;;;;;;;3.65;2.85;;;21.10;41.00;;;;;;4977162;28;20169;-67
2022/03/10 11:40:13;;;;;;;4.53;2.67;;;21.10;40.90;;;;;;4966730;28;20181;-67
2022/03/10 11:42:40;;;;;;;5.28;2.70;;;21.00;41.20;;;;;;4995275;28;20189;-67
2022/03/10 11:45:12;;;;;;;5.10;2.67;;;21.00;40.70;;;;;;4996116;28;20284;-65
2022/03/10 11:47:39;;;;;;;6.28;2.80;;;21.00;40.60;;;;;;4978725;28;20196;-66
2022/03/10 11:50:25;;;;;;;4.13;3.00;;;20.90;40.80;;;;;;4996413;28;20185;-67
2022/03/10 11:53:12;;;;;;;4.32;2.80;;;20.90;40.80;;;;;;5011471;28;20195;-66
2022/03/10 11:55:52;;;;;;;3.78;2.40;;;20.90;40.60;;;;;;4994885;28;20209;-66
2022/03/10 11:58:40;;;;;;;4.20;2.75;;;21.00;40.80;;;;;;4987004;28;20184;-67
2022/03/10 12:01:06;;;;;;;4.85;2.55;;;21.00;40.70;;;;;;4988815;28;20228;-66
2022/03/10 12:03:37;;;;;;;3.90;2.42;;;21.10;41.30;;;;;;4995948;28;20208;-66
2022/03/10 12:06:06;;;;;;;4.05;2.88;;;21.10;41.20;;;;;;5011266;28;20210;-66
2022/03/10 12:08:38;;;;;;;3.13;2.53;;;21.10;41.10;;;;;;4996184;28;20226;-67
2022/03/10 12:11:13;;;;;;;2.83;2.28;;;21.00;40.90;;;;;;4989797;28;20276;-66
2022/03/10 12:13:44;;;;;;;5.68;3.17;;;21.00;40.70;;;;;;4994529;28;20218;-66
2022/03/10 12:16:27;;;;;;;5.20;2.58;;;21.00;40.80;;;;;;4995889;28;20197;-66
2022/03/10 12:18:55;;;;;;;4.53;2.45;;;21.00;40.80;;;;;;4994559;28;20192;-66
2022/03/10 12:21:27;;;;;;;2.75;2.28;;;21.00;40.80;;;;;;4995424;28;20584;-66
2022/03/10 12:23:53;;;;;;;3.78;2.28;;;21.00;40.80;;;;;;4994287;28;20587;-67
2022/03/10 12:26:47;;;;;;;3.85;2.45;;;21.00;40.70;;;;;;4995999;28;20169;-67
2022/03/10 12:29:14;;;;;;;4.40;2.03;;;21.00;40.70;;;;;;4993057;28;20196;-66
2022/03/10 12:31:42;;;;;;;3.13;2.42;;;21.00;40.70;;;;;;4978142;28;20203;-67
2022/03/10 12:34:14;;;;;;;11.52;3.60;;;21.00;40.80;;;;;;4994076;28;20213;-67
2022/03/10 12:36:50;;;;;;;11.35;3.90;;;21.10;44.90;;;;;;4995191;28;20216;-67
2022/03/10 12:39:22;;;;;;;14.48;4.00;;;21.20;47.20;;;;;;4995197;28;20175;-68
2022/03/10 12:41:54;;;;;;;8.07;3.92;;;21.30;47.90;;;;;;4994599;28;20223;-67
2022/03/10 12:44:22;;;;;;;11.93;3.72;;;21.30;47.20;;;;;;4995154;28;20231;-67
2022/03/10 12:46:52;;;;;;;8.20;3.97;;;21.30;46.70;;;;;;4977937;28;20199;-67
2022/03/10 12:49:35;;;;;;;9.40;3.58;;;21.20;45.80;;;;;;4977929;28;20181;-66
2022/03/10 12:52:13;;;;;;;10.80;3.85;;;21.20;45.20;;;;;;4975908;28;20707;-66
2022/03/10 12:54:41;;;;;;;8.45;4.07;;;21.20;44.90;;;;;;4988489;28;20208;-67
2022/03/10 12:57:09;;;;;;;7.97;3.58;;;21.10;44.60;;;;;;4969116;28;20177;-67